createdAt,value
2018-07-13T00:00:07.936Z,7.30
2018-07-13T00:02:36.100Z,7.00
2018-07-13T00:05:04.359Z,6.30
2018-07-13T00:07:32.492Z,6.23
2018-07-13T00:10:00.626Z,6.57
2018-07-13T00:12:28.750Z,7.30
2018-07-13T00:15:05.988Z,6.53
2018-07-13T00:17:34.131Z,6.83
2018-07-13T00:20:02.295Z,11.27
2018-07-13T00:22:30.559Z,8.17
2018-07-13T00:24:58.752Z,8.63
2018-07-13T00:27:26.899Z,7.33
2018-07-13T00:29:55.116Z,6.23
2018-07-13T00:32:23.263Z,7.37
2018-07-13T00:34:51.391Z,7.10
2018-07-13T00:37:19.577Z,7.33
2018-07-13T00:39:47.706Z,6.97
2018-07-13T00:42:15.855Z,7.20
2018-07-13T00:44:44.623Z,7.10
2018-07-13T00:47:12.776Z,6.27
2018-07-13T00:49:40.923Z,7.60
2018-07-13T00:52:09.112Z,7.30
2018-07-13T00:54:37.370Z,8.47
2018-07-13T00:57:05.708Z,7.77
2018-07-13T00:59:33.907Z,8.57
2018-07-13T01:02:02.088Z,8.07
2018-07-13T01:04:30.239Z,7.23
2018-07-13T01:06:58.367Z,6.90
2018-07-13T01:09:26.355Z,7.20
2018-07-13T01:11:54.548Z,7.30
2018-07-13T01:14:22.687Z,7.20
2018-07-13T01:16:50.885Z,6.83
2018-07-13T01:19:19.110Z,7.17
2018-07-13T01:21:47.578Z,7.57
2018-07-13T01:24:15.907Z,7.40
2018-07-13T01:26:44.105Z,7.03
2018-07-13T01:29:12.288Z,7.20
2018-07-13T01:31:40.454Z,7.13
2018-07-13T01:34:08.703Z,7.20
2018-07-13T01:36:36.836Z,8.73
2018-07-13T01:39:08.060Z,6.77
2018-07-13T01:41:36.254Z,7.07
2018-07-13T01:44:04.426Z,6.90
2018-07-13T01:46:32.588Z,7.50
2018-07-13T01:49:00.748Z,7.67
2018-07-13T01:51:28.896Z,7.90
2018-07-13T01:53:57.051Z,7.27
2018-07-13T01:56:25.192Z,7.37
2018-07-13T01:58:53.396Z,6.77
2018-07-13T02:01:21.547Z,7.33
2018-07-13T02:03:49.704Z,6.50
2018-07-13T02:08:52.735Z,6.60
2018-07-13T02:11:20.895Z,6.80
2018-07-13T02:13:49.513Z,6.83
2018-07-13T02:16:17.639Z,7.40
2018-07-13T02:18:45.808Z,9.43
2018-07-13T02:21:13.959Z,6.50
2018-07-13T02:23:42.112Z,7.63
2018-07-13T02:26:10.272Z,7.57
2018-07-13T02:28:38.429Z,8.20
2018-07-13T02:31:06.579Z,7.20
2018-07-13T02:33:34.747Z,6.90
2018-07-13T02:36:02.960Z,6.73
2018-07-13T02:38:31.096Z,7.73
2018-07-13T02:40:59.871Z,7.67
2018-07-13T02:43:27.993Z,7.50
2018-07-13T02:45:56.132Z,6.93
2018-07-13T02:48:24.259Z,9.30
2018-07-13T02:50:52.399Z,8.63
2018-07-13T02:53:20.558Z,7.47
2018-07-13T02:55:48.731Z,7.43
2018-07-13T02:58:16.895Z,8.53
2018-07-13T03:00:45.067Z,7.37
2018-07-13T03:05:47.872Z,7.73
2018-07-13T03:08:16.062Z,6.83
2018-07-13T03:10:44.250Z,8.43
2018-07-13T03:13:12.497Z,7.53
2018-07-13T03:15:40.648Z,6.77
2018-07-13T03:18:08.856Z,7.23
2018-07-13T03:20:37.159Z,8.03
2018-07-13T03:23:05.414Z,7.33
2018-07-13T03:25:33.562Z,7.73
2018-07-13T03:28:01.781Z,7.50
2018-07-13T03:30:29.981Z,7.57
2018-07-13T03:32:58.126Z,7.93
2018-07-13T03:35:26.302Z,8.00
2018-07-13T03:37:54.499Z,7.40
2018-07-13T03:40:22.659Z,7.20
2018-07-13T03:42:50.823Z,8.30
2018-07-13T03:45:18.999Z,8.90
2018-07-13T03:47:47.191Z,6.53
2018-07-13T03:50:15.430Z,9.13
2018-07-13T03:52:43.678Z,6.50
2018-07-13T03:55:11.807Z,6.60
2018-07-13T03:57:39.954Z,6.17
2018-07-13T04:00:08.115Z,8.13
2018-07-13T04:02:36.273Z,7.13
2018-07-13T04:05:04.430Z,9.17
2018-07-13T04:07:32.578Z,9.30
2018-07-13T04:10:00.749Z,9.70
2018-07-13T04:12:28.985Z,10.40
2018-07-13T04:14:57.142Z,6.83
2018-07-13T04:17:25.266Z,7.30
2018-07-13T04:19:53.421Z,7.63
2018-07-13T04:22:22.063Z,9.33
2018-07-13T04:24:50.208Z,8.10
2018-07-13T04:27:19.140Z,6.70
2018-07-13T04:29:47.332Z,5.90
2018-07-13T04:32:15.534Z,7.83
2018-07-13T04:34:43.711Z,8.60
2018-07-13T04:37:11.858Z,6.37
2018-07-13T04:39:40.004Z,5.90
2018-07-13T04:42:08.631Z,8.90
2018-07-13T04:44:36.869Z,6.20
2018-07-13T04:47:08.210Z,6.20
2018-07-13T04:49:36.391Z,6.63
2018-07-13T04:52:04.541Z,6.43
2018-07-13T04:54:32.671Z,6.03
2018-07-13T04:57:01.144Z,6.30
2018-07-13T04:59:29.290Z,6.83
2018-07-13T05:01:57.527Z,6.53
2018-07-13T05:04:25.770Z,6.50
2018-07-13T05:06:54.010Z,5.90
2018-07-13T05:09:22.145Z,8.77
2018-07-13T05:11:50.331Z,11.37
2018-07-13T05:14:19.521Z,7.97
2018-07-13T05:16:47.446Z,7.43
2018-07-13T05:19:15.586Z,9.60
2018-07-13T05:21:43.778Z,7.20
2018-07-13T05:24:12.997Z,8.50
2018-07-13T05:26:41.252Z,7.90
2018-07-13T05:29:09.462Z,7.07
2018-07-13T05:31:37.879Z,7.37
2018-07-13T05:34:06.129Z,8.03
2018-07-13T05:36:34.284Z,7.37
2018-07-13T05:39:02.468Z,8.80
2018-07-13T05:41:30.614Z,8.33
2018-07-13T05:43:58.761Z,9.97
2018-07-13T05:46:26.996Z,9.23
2018-07-13T05:48:55.169Z,8.57
2018-07-13T05:51:23.314Z,8.97
2018-07-13T05:53:51.474Z,11.20
2018-07-13T05:56:19.639Z,10.23
2018-07-13T05:58:47.825Z,12.47
2018-07-13T06:01:15.951Z,11.17
2018-07-13T06:03:44.145Z,11.43
2018-07-13T06:06:12.299Z,10.23
2018-07-13T06:08:40.447Z,10.73
2018-07-13T06:11:08.758Z,10.27
2018-07-13T06:13:36.903Z,8.67
2018-07-13T06:16:05.089Z,9.40
2018-07-13T06:18:33.297Z,10.27
2018-07-13T06:21:01.463Z,12.23
2018-07-13T06:23:29.627Z,10.13
2018-07-13T06:25:57.770Z,10.83
2018-07-13T06:28:25.931Z,10.07
2018-07-13T06:30:54.085Z,8.43
2018-07-13T06:33:22.244Z,8.90
2018-07-13T06:35:50.434Z,8.73
2018-07-13T06:38:18.579Z,10.23
2018-07-13T06:40:47.343Z,8.43
2018-07-13T06:43:15.550Z,10.00
2018-07-13T06:45:43.717Z,9.33
2018-07-13T06:48:11.646Z,11.70
2018-07-13T06:50:39.803Z,9.00
2018-07-13T06:53:08.626Z,8.70
2018-07-13T06:55:36.804Z,9.43
2018-07-13T06:58:16.349Z,8.10
2018-07-13T07:00:54.542Z,7.37
2018-07-13T07:03:23.447Z,7.43
2018-07-13T07:05:57.684Z,7.70
2018-07-13T07:08:25.847Z,7.43
2018-07-13T07:10:54.004Z,7.43
2018-07-13T07:13:27.697Z,6.73
2018-07-13T07:15:55.838Z,9.47
2018-07-13T07:18:24.108Z,6.83
2018-07-13T07:20:52.262Z,6.80
2018-07-13T07:23:20.419Z,6.50
2018-07-13T07:25:48.562Z,8.00
2018-07-13T07:28:16.801Z,6.20
2018-07-13T07:30:44.989Z,5.80
2018-07-13T07:33:13.095Z,5.60
2018-07-13T07:35:41.260Z,5.13
2018-07-13T07:38:09.431Z,5.43
2018-07-13T07:40:37.573Z,7.13
2018-07-13T07:43:05.709Z,7.13
2018-07-13T07:45:33.849Z,6.40
2018-07-13T07:48:01.989Z,8.03
2018-07-13T07:50:30.138Z,6.53
2018-07-13T07:52:58.307Z,4.77
2018-07-13T07:55:26.429Z,7.00
2018-07-13T07:57:54.591Z,4.50
2018-07-13T08:00:22.714Z,4.10
2018-07-13T08:02:50.920Z,4.63
2018-07-13T08:05:19.011Z,4.60
2018-07-13T08:07:47.168Z,4.13
2018-07-13T08:10:15.327Z,3.90
2018-07-13T08:12:43.487Z,4.60
2018-07-13T08:15:11.624Z,4.17
2018-07-13T08:17:39.746Z,3.87
2018-07-13T08:20:07.923Z,3.77
2018-07-13T08:22:39.665Z,3.87
2018-07-13T08:25:09.275Z,4.10
2018-07-13T08:27:40.927Z,4.27
2018-07-13T08:30:14.405Z,4.23
2018-07-13T08:32:42.563Z,3.90
2018-07-13T08:35:10.710Z,3.67
2018-07-13T08:37:38.817Z,3.37
2018-07-13T08:40:06.964Z,3.90
2018-07-13T08:42:35.075Z,3.87
2018-07-13T08:45:03.286Z,3.47
2018-07-13T08:47:31.385Z,4.47
2018-07-13T08:49:59.670Z,3.33
2018-07-13T08:52:27.800Z,3.20
2018-07-13T08:54:56.409Z,3.37
2018-07-13T08:57:24.562Z,3.00
2018-07-13T08:59:52.832Z,4.67
2018-07-13T09:02:20.919Z,3.10
2018-07-13T09:04:49.070Z,5.30
2018-07-13T09:07:17.188Z,4.13
2018-07-13T09:09:45.375Z,3.50
2018-07-13T09:12:13.510Z,5.03
2018-07-13T09:14:41.635Z,3.90
2018-07-13T09:17:09.785Z,3.50
2018-07-13T09:19:37.945Z,3.30
2018-07-13T09:22:06.439Z,3.07
2018-07-13T09:24:34.563Z,3.83
2018-07-13T09:27:02.718Z,3.00
2018-07-13T09:29:30.889Z,2.73
2018-07-13T09:31:59.070Z,3.00
2018-07-13T09:34:27.235Z,4.30
2018-07-13T09:36:55.349Z,3.67
2018-07-13T09:39:23.491Z,3.10
2018-07-13T09:41:51.818Z,3.27
2018-07-13T09:44:19.925Z,2.97
2018-07-13T09:46:48.227Z,2.97
2018-07-13T09:49:16.214Z,3.00
2018-07-13T09:51:44.131Z,2.77
2018-07-13T09:54:12.271Z,3.23
2018-07-13T09:56:40.374Z,2.77
2018-07-13T09:59:08.513Z,2.63
2018-07-13T10:01:36.702Z,3.17
2018-07-13T10:04:04.824Z,2.80
2018-07-13T10:06:32.947Z,3.77
2018-07-13T10:09:01.059Z,4.87
2018-07-13T10:11:29.243Z,2.90
2018-07-13T10:13:57.930Z,2.50
2018-07-13T10:16:26.110Z,2.63
2018-07-13T10:18:54.327Z,2.80
2018-07-13T10:21:22.438Z,3.90
2018-07-13T10:23:50.591Z,2.97
2018-07-13T10:26:21.640Z,3.10
2018-07-13T10:28:49.807Z,4.43
2018-07-13T10:31:18.002Z,2.77
2018-07-13T10:33:46.166Z,2.90
2018-07-13T10:36:15.958Z,3.17
2018-07-13T10:38:44.159Z,2.53
2018-07-13T10:41:12.297Z,3.70
2018-07-13T10:43:40.813Z,2.83
2018-07-13T10:46:08.971Z,4.73
2018-07-13T10:48:37.113Z,2.67
2018-07-13T10:51:05.279Z,3.03
2018-07-13T10:53:33.831Z,2.80
2018-07-13T10:56:01.968Z,3.27
2018-07-13T10:58:30.122Z,2.93
2018-07-13T11:00:58.245Z,3.03
2018-07-13T11:03:26.380Z,3.03
2018-07-13T11:05:54.523Z,2.80
2018-07-13T11:08:22.732Z,3.03
2018-07-13T11:10:50.851Z,2.90
2018-07-13T11:13:18.997Z,4.13
2018-07-13T11:15:47.183Z,2.43
2018-07-13T11:18:15.425Z,2.90
2018-07-13T11:20:43.653Z,2.90
2018-07-13T11:23:11.775Z,5.47
2018-07-13T11:25:39.911Z,2.57
2018-07-13T11:28:08.072Z,3.00
2018-07-13T11:30:36.231Z,2.67
2018-07-13T11:33:04.386Z,2.77
2018-07-13T11:35:32.497Z,2.50
2018-07-13T11:38:00.652Z,4.10
2018-07-13T11:40:28.754Z,4.10
2018-07-13T11:42:56.930Z,2.90
2018-07-13T11:45:25.055Z,2.90
2018-07-13T11:47:53.199Z,3.97
2018-07-13T11:50:21.378Z,2.67
2018-07-13T11:52:49.494Z,2.63
2018-07-13T11:55:17.640Z,2.57
2018-07-13T11:57:45.750Z,3.77
2018-07-13T12:00:13.882Z,4.47
2018-07-13T12:02:42.011Z,3.10
2018-07-13T12:05:10.150Z,2.90
2018-07-13T12:07:38.406Z,4.30
2018-07-13T12:10:06.439Z,3.13
2018-07-13T12:12:34.574Z,2.70
2018-07-13T12:15:02.691Z,4.10
2018-07-13T12:17:31.023Z,4.13
2018-07-13T12:19:59.180Z,3.93
2018-07-13T12:22:28.148Z,2.87
2018-07-13T12:24:56.374Z,2.40
2018-07-13T12:27:24.657Z,2.63
2018-07-13T12:29:52.803Z,2.70
2018-07-13T12:32:21.020Z,2.67
2018-07-13T12:34:49.088Z,2.10
2018-07-13T12:37:17.212Z,2.10
2018-07-13T12:39:45.401Z,2.37
2018-07-13T12:42:13.539Z,2.30
2018-07-13T12:44:41.695Z,2.73
2018-07-13T12:47:09.887Z,2.33
2018-07-13T12:49:38.032Z,2.97
2018-07-13T12:52:06.178Z,2.23
2018-07-13T12:54:34.324Z,3.30
2018-07-13T12:57:02.466Z,2.20
2018-07-13T12:59:30.681Z,3.33
2018-07-13T13:01:58.806Z,2.07
2018-07-13T13:04:27.035Z,2.00
2018-07-13T13:06:55.195Z,2.10
2018-07-13T13:09:23.325Z,2.20
2018-07-13T13:11:51.238Z,2.43
2018-07-13T13:14:19.376Z,2.17
2018-07-13T13:16:47.502Z,2.43
2018-07-13T13:19:15.652Z,2.67
2018-07-13T13:21:43.779Z,2.70
2018-07-13T13:24:11.681Z,2.20
2018-07-13T13:26:39.835Z,2.20
2018-07-13T13:29:07.972Z,2.20
2018-07-13T13:31:36.101Z,1.90
2018-07-13T13:34:04.228Z,2.50
2018-07-13T13:36:32.329Z,3.27
2018-07-13T13:39:00.478Z,2.53
2018-07-13T13:41:28.418Z,2.60
2018-07-13T13:43:56.580Z,4.13
2018-07-13T13:46:24.804Z,2.50
2018-07-13T13:48:53.015Z,2.40
2018-07-13T13:51:21.259Z,3.23
2018-07-13T13:53:50.119Z,2.40
2018-07-13T13:56:18.253Z,5.43
2018-07-13T13:58:46.371Z,2.40
2018-07-13T14:01:14.481Z,2.40
2018-07-13T14:03:42.630Z,2.93
2018-07-13T14:06:10.850Z,2.23
2018-07-13T14:08:38.976Z,2.70
2018-07-13T14:11:07.138Z,2.30
2018-07-13T14:13:35.288Z,2.13
2018-07-13T14:16:03.579Z,3.60
2018-07-13T14:18:31.725Z,3.20
2018-07-13T14:20:59.885Z,2.57
2018-07-13T14:23:28.025Z,2.40
2018-07-13T14:25:56.182Z,2.30
2018-07-13T14:28:24.327Z,2.43
2018-07-13T14:30:52.489Z,2.50
2018-07-13T14:33:20.574Z,1.97
2018-07-13T14:35:48.698Z,2.10
2018-07-13T14:38:16.928Z,2.20
2018-07-13T14:40:45.055Z,3.87
2018-07-13T14:43:13.182Z,2.57
2018-07-13T14:45:41.358Z,2.03
2018-07-13T14:48:09.596Z,2.17
2018-07-13T14:50:37.691Z,2.87
2018-07-13T14:53:05.918Z,2.30
2018-07-13T14:55:34.070Z,2.33
2018-07-13T14:58:02.237Z,3.73
2018-07-13T15:00:30.446Z,3.23
2018-07-13T15:02:58.591Z,2.40
2018-07-13T15:05:26.724Z,2.60
2018-07-13T15:07:54.994Z,2.50
2018-07-13T15:10:23.179Z,3.37
2018-07-13T15:12:51.479Z,2.37
2018-07-13T15:15:20.324Z,2.70
2018-07-13T15:17:48.478Z,3.87
2018-07-13T15:20:16.602Z,2.63
2018-07-13T15:22:44.754Z,2.80
2018-07-13T15:25:13.026Z,3.03
2018-07-13T15:27:41.291Z,2.80
2018-07-13T15:30:09.447Z,2.40
2018-07-13T15:32:37.593Z,2.77
2018-07-13T15:35:05.722Z,2.60
2018-07-13T15:37:33.907Z,5.23
2018-07-13T15:40:02.622Z,2.50
2018-07-13T15:42:30.773Z,2.10
2018-07-13T15:44:58.983Z,2.80
2018-07-13T15:47:28.477Z,2.50
2018-07-13T15:49:56.616Z,2.60
2018-07-13T15:52:24.812Z,2.37
2018-07-13T15:54:53.007Z,2.93
2018-07-13T15:57:21.151Z,3.73
2018-07-13T15:59:49.280Z,4.13
2018-07-13T16:02:17.439Z,2.67
2018-07-13T16:04:45.570Z,2.73
2018-07-13T16:07:13.750Z,5.00
2018-07-13T16:09:41.878Z,2.77
2018-07-13T16:12:10.068Z,2.83
2018-07-13T16:14:38.206Z,2.70
2018-07-13T16:17:06.453Z,2.60
2018-07-13T16:19:34.687Z,3.30
2018-07-13T16:22:02.891Z,2.80
2018-07-13T16:24:31.026Z,2.90
2018-07-13T16:26:59.176Z,3.60
2018-07-13T16:29:27.311Z,5.23
2018-07-13T16:31:55.474Z,3.37
2018-07-13T16:34:23.719Z,3.87
2018-07-13T16:36:52.007Z,4.13
2018-07-13T16:39:20.166Z,3.40
2018-07-13T16:41:48.294Z,2.90
2018-07-13T16:44:16.427Z,4.53
2018-07-13T16:46:44.763Z,4.67
2018-07-13T16:49:12.874Z,5.03
2018-07-13T16:51:41.113Z,3.33
2018-07-13T16:54:09.259Z,5.13
2018-07-13T16:56:37.484Z,6.57
2018-07-13T16:59:05.580Z,2.93
2018-07-13T17:01:33.763Z,3.23
2018-07-13T17:04:01.908Z,2.80
2018-07-13T17:06:30.071Z,3.80
2018-07-13T17:08:58.227Z,4.37
2018-07-13T17:11:26.388Z,3.60
2018-07-13T17:13:54.543Z,3.73
2018-07-13T17:16:22.670Z,3.47
2018-07-13T17:18:50.790Z,7.63
2018-07-13T17:21:18.953Z,5.27
2018-07-13T17:23:47.065Z,5.77
2018-07-13T17:26:15.288Z,6.33
2018-07-13T17:28:43.386Z,3.93
2018-07-13T17:31:11.567Z,6.73
2018-07-13T17:33:39.787Z,4.60
2018-07-13T17:36:07.918Z,5.33
2018-07-13T17:38:36.066Z,6.60
2018-07-13T17:41:04.233Z,7.07
2018-07-13T17:43:32.408Z,5.70
2018-07-13T17:46:00.775Z,4.37
2018-07-13T17:48:28.998Z,7.07
2018-07-13T17:50:57.156Z,5.10
2018-07-13T17:53:25.414Z,4.77
2018-07-13T17:55:53.554Z,7.73
2018-07-13T17:58:21.691Z,5.23
2018-07-13T18:00:50.014Z,5.47
2018-07-13T18:03:18.057Z,4.60
2018-07-13T18:05:46.209Z,4.07
2018-07-13T18:08:14.362Z,4.20
2018-07-13T18:10:42.483Z,6.33
2018-07-13T18:13:10.639Z,6.00
2018-07-13T18:15:39.019Z,4.33
2018-07-13T18:18:07.402Z,5.53
2018-07-13T18:20:35.542Z,4.50
2018-07-13T18:23:03.750Z,8.80
2018-07-13T18:25:31.553Z,4.73
2018-07-13T18:27:59.761Z,4.20
2018-07-13T18:30:27.907Z,4.93
2018-07-13T18:32:56.031Z,4.77
2018-07-13T18:35:24.134Z,5.63
2018-07-13T18:37:52.254Z,6.00
2018-07-13T18:40:20.362Z,7.13
2018-07-13T18:42:48.542Z,7.27
2018-07-13T18:45:16.676Z,5.20
2018-07-13T18:47:44.789Z,6.83
2018-07-13T18:50:12.890Z,5.20
2018-07-13T18:52:41.029Z,5.83
2018-07-13T18:55:09.184Z,6.93
2018-07-13T18:57:37.361Z,5.03
2018-07-13T19:00:05.540Z,7.90
2018-07-13T19:02:33.670Z,6.80
2018-07-13T19:05:01.786Z,6.43
2018-07-13T19:07:30.029Z,7.70
2018-07-13T19:09:58.018Z,5.10
2018-07-13T19:12:26.143Z,4.73
2018-07-13T19:14:54.071Z,7.30
2018-07-13T19:17:22.205Z,7.97
2018-07-13T19:19:50.332Z,7.53
2018-07-13T19:22:18.546Z,7.20
2018-07-13T19:24:46.678Z,6.03
2018-07-13T19:27:14.850Z,8.27
2018-07-13T19:29:43.022Z,8.30
2018-07-13T19:32:11.140Z,6.57
2018-07-13T19:34:39.294Z,8.43
2018-07-13T19:37:07.454Z,5.50
2018-07-13T19:39:35.582Z,5.57
2018-07-13T19:42:03.709Z,7.53
2018-07-13T19:44:31.834Z,5.10
2018-07-13T19:47:00.002Z,7.40
2018-07-13T19:49:28.130Z,8.80
2018-07-13T19:51:56.316Z,9.37
2018-07-13T19:54:24.573Z,6.73
2018-07-13T19:56:52.686Z,8.87
2018-07-13T19:59:20.915Z,6.07
2018-07-13T20:01:49.198Z,9.00
2018-07-13T20:04:17.359Z,7.13
2018-07-13T20:06:45.480Z,7.10
2018-07-13T20:09:13.605Z,8.03
2018-07-13T20:11:41.737Z,7.77
2018-07-13T20:14:10.020Z,8.87
2018-07-13T20:16:38.139Z,12.10
2018-07-13T20:19:06.282Z,8.23
2018-07-13T20:21:34.422Z,6.70
2018-07-13T20:24:02.601Z,5.53
2018-07-13T20:26:30.744Z,9.90
2018-07-13T20:28:58.877Z,9.20
2018-07-13T20:31:27.063Z,17.37
2018-07-13T20:33:55.188Z,7.47
2018-07-13T20:36:23.338Z,6.43
2018-07-13T20:38:51.482Z,6.70
2018-07-13T20:41:19.621Z,10.83
2018-07-13T20:43:47.745Z,6.70
2018-07-13T20:46:15.907Z,7.80
2018-07-13T20:48:44.040Z,10.47
2018-07-13T20:51:12.175Z,7.67
2018-07-13T20:53:40.335Z,7.87
2018-07-13T20:56:08.544Z,6.30
2018-07-13T20:58:36.657Z,7.00
2018-07-13T21:01:04.820Z,8.50
2018-07-13T21:03:32.978Z,6.70
2018-07-13T21:06:01.147Z,7.57
2018-07-13T21:08:29.273Z,7.50
2018-07-13T21:10:57.407Z,8.40
2018-07-13T21:13:25.576Z,6.73
2018-07-13T21:15:53.746Z,12.53
2018-07-13T21:18:21.883Z,7.20
2018-07-13T21:20:50.075Z,6.97
2018-07-13T21:23:18.166Z,6.03
2018-07-13T21:25:46.339Z,6.97
2018-07-13T21:28:14.488Z,8.23
2018-07-13T21:30:42.644Z,8.23
2018-07-13T21:33:10.566Z,9.20
2018-07-13T21:35:38.723Z,9.17
2018-07-13T21:38:06.859Z,8.50
2018-07-13T21:40:35.119Z,7.57
2018-07-13T21:43:03.266Z,8.53
2018-07-13T21:45:31.428Z,7.43
2018-07-13T21:47:59.568Z,6.53
2018-07-13T21:50:27.719Z,8.93
2018-07-13T21:52:55.852Z,7.80
2018-07-13T21:55:23.989Z,7.23
2018-07-13T21:57:52.143Z,12.53
2018-07-13T22:00:20.369Z,7.83
2018-07-13T22:02:48.543Z,7.90
2018-07-13T22:05:16.695Z,6.93
2018-07-13T22:07:44.874Z,7.20
2018-07-13T22:10:13.076Z,7.53
2018-07-13T22:12:41.227Z,8.20
2018-07-13T22:15:09.409Z,8.37
2018-07-13T22:17:37.551Z,8.53
2018-07-13T22:20:05.726Z,7.93
2018-07-13T22:22:33.907Z,8.50
2018-07-13T22:25:02.055Z,8.87
2018-07-13T22:27:30.215Z,8.40
2018-07-13T22:29:58.342Z,7.80
2018-07-13T22:32:26.472Z,8.47
2018-07-13T22:34:54.680Z,7.60
2018-07-13T22:37:22.836Z,7.57
2018-07-13T22:39:50.998Z,10.30
2018-07-13T22:42:19.174Z,6.60
2018-07-13T22:44:47.075Z,6.90
2018-07-13T22:47:15.212Z,9.83
2018-07-13T22:49:43.379Z,7.23
2018-07-13T22:52:11.541Z,7.70
2018-07-13T22:54:39.753Z,7.83
2018-07-13T22:57:07.975Z,7.97
2018-07-13T22:59:36.179Z,7.03
2018-07-13T23:02:04.327Z,6.70
2018-07-13T23:04:32.491Z,9.03
2018-07-13T23:07:07.411Z,6.60
2018-07-13T23:09:35.546Z,7.87
2018-07-13T23:12:03.714Z,7.73
2018-07-13T23:14:31.861Z,7.00
2018-07-13T23:17:00.053Z,7.00
2018-07-13T23:19:28.193Z,9.23
2018-07-13T23:21:56.371Z,8.60
2018-07-13T23:24:24.683Z,8.60
2018-07-13T23:26:52.843Z,7.00
2018-07-13T23:29:21.009Z,6.83
2018-07-13T23:31:49.162Z,8.63
2018-07-13T23:34:17.329Z,8.60
2018-07-13T23:36:45.483Z,9.17
2018-07-13T23:39:13.654Z,9.73
2018-07-13T23:41:41.864Z,8.13
2018-07-13T23:44:09.986Z,9.60
2018-07-13T23:46:38.144Z,7.90
2018-07-13T23:49:06.337Z,7.27
2018-07-13T23:51:34.471Z,7.20
2018-07-13T23:54:02.644Z,7.83
2018-07-13T23:56:30.842Z,6.93
2018-07-13T23:58:59.047Z,7.80
